sensor_id;sensor_type;location;lat;lon;timestamp;temperature;humidity
1578;DHT22;57623;53.608;10.004;2023-04-25T00:00:24;8.60;99.90
1578;DHT22;57623;53.608;10.004;2023-04-25T00:02:52;8.50;99.90
1578;DHT22;57623;53.608;10.004;2023-04-25T00:05:22;8.50;99.90
1578;DHT22;57623;53.608;10.004;2023-04-25T00:07:51;8.50;99.90
1578;DHT22;57623;53.608;10.004;2023-04-25T00:10:20;8.50;99.90
1578;DHT22;57623;53.608;10.004;2023-04-25T00:12:48;8.50;99.90
1578;DHT22;57623;53.608;10.004;2023-04-25T00:15:17;8.40;99.90
1578;DHT22;57623;53.608;10.004;2023-04-25T00:17:45;8.40;99.90
1578;DHT22;57623;53.608;10.004;2023-04-25T00:20:13;8.40;99.90
1578;DHT22;57623;53.608;10.004;2023-04-25T00:22:41;8.40;99.90
1578;DHT22;57623;53.608;10.004;2023-04-25T00:25:09;8.40;99.90
1578;DHT22;57623;53.608;10.004;2023-04-25T00:27:37;8.40;99.90
1578;DHT22;57623;53.608;10.004;2023-04-25T00:30:06;8.40;99.90
1578;DHT22;57623;53.608;10.004;2023-04-25T00:32:36;8.40;99.90
1578;DHT22;57623;53.608;10.004;2023-04-25T00:35:04;8.40;99.90
1578;DHT22;57623;53.608;10.004;2023-04-25T00:37:32;8.30;99.90
1578;DHT22;57623;53.608;10.004;2023-04-25T00:40:00;8.30;99.90
1578;DHT22;57623;53.608;10.004;2023-04-25T00:42:28;8.30;99.90
1578;DHT22;57623;53.608;10.004;2023-04-25T00:44:57;8.30;99.90
1578;DHT22;57623;53.608;10.004;2023-04-25T00:47:26;8.30;99.90
1578;DHT22;57623;53.608;10.004;2023-04-25T00:49:55;8.20;99.90
1578;DHT22;57623;53.608;10.004;2023-04-25T00:52:23;8.20;99.90
1578;DHT22;57623;53.608;10.004;2023-04-25T00:54:51;8.20;99.90
1578;DHT22;57623;53.608;10.004;2023-04-25T00:57:19;8.20;99.90
1578;DHT22;57623;53.608;10.004;2023-04-25T00:59:48;8.10;99.90
1578;DHT22;57623;53.608;10.004;2023-04-25T01:02:19;8.10;99.90
1578;DHT22;57623;53.608;10.004;2023-04-25T01:04:48;8.10;99.90
1578;DHT22;57623;53.608;10.004;2023-04-25T01:07:17;8.10;99.90
1578;DHT22;57623;53.608;10.004;2023-04-25T01:09:46;8.10;99.90
1578;DHT22;57623;53.608;10.004;2023-04-25T01:12:14;8.00;99.90
1578;DHT22;57623;53.608;10.004;2023-04-25T01:14:42;8.10;99.90
1578;DHT22;57623;53.608;10.004;2023-04-25T01:17:10;8.10;99.90
1578;DHT22;57623;53.608;10.004;2023-04-25T01:19:38;8.10;99.90
1578;DHT22;57623;53.608;10.004;2023-04-25T01:22:07;8.00;99.90
1578;DHT22;57623;53.608;10.004;2023-04-25T01:24:37;8.00;99.90
1578;DHT22;57623;53.608;10.004;2023-04-25T01:27:05;7.90;99.90
1578;DHT22;57623;53.608;10.004;2023-04-25T01:33:15;7.90;99.90
1578;DHT22;57623;53.608;10.004;2023-04-25T01:35:43;7.90;99.90
1578;DHT22;57623;53.608;10.004;2023-04-25T01:38:13;7.90;99.90
1578;DHT22;57623;53.608;10.004;2023-04-25T01:40:41;7.80;99.90
1578;DHT22;57623;53.608;10.004;2023-04-25T01:43:12;7.80;99.90
1578;DHT22;57623;53.608;10.004;2023-04-25T01:45:41;7.70;99.90
1578;DHT22;57623;53.608;10.004;2023-04-25T01:48:09;7.70;99.90
1578;DHT22;57623;53.608;10.004;2023-04-25T01:50:37;7.70;99.90
1578;DHT22;57623;53.608;10.004;2023-04-25T01:53:06;7.70;99.90
1578;DHT22;57623;53.608;10.004;2023-04-25T01:55:35;7.60;99.90
1578;DHT22;57623;53.608;10.004;2023-04-25T01:58:03;7.60;99.90
1578;DHT22;57623;53.608;10.004;2023-04-25T02:00:35;7.60;99.90
1578;DHT22;57623;53.608;10.004;2023-04-25T02:03:05;7.60;99.90
1578;DHT22;57623;53.608;10.004;2023-04-25T02:05:37;7.60;99.90
1578;DHT22;57623;53.608;10.004;2023-04-25T02:08:06;7.60;99.90
1578;DHT22;57623;53.608;10.004;2023-04-25T02:14:16;7.50;99.90
1578;DHT22;57623;53.608;10.004;2023-04-25T02:16:44;7.50;99.90
1578;DHT22;57623;53.608;10.004;2023-04-25T02:19:13;7.50;99.90
1578;DHT22;57623;53.608;10.004;2023-04-25T02:21:41;7.50;99.90
1578;DHT22;57623;53.608;10.004;2023-04-25T02:24:09;7.50;99.90
1578;DHT22;57623;53.608;10.004;2023-04-25T02:26:37;7.50;99.90
1578;DHT22;57623;53.608;10.004;2023-04-25T02:29:05;7.40;99.90
1578;DHT22;57623;53.608;10.004;2023-04-25T02:31:35;7.40;99.90
1578;DHT22;57623;53.608;10.004;2023-04-25T02:34:03;7.50;99.90
1578;DHT22;57623;53.608;10.004;2023-04-25T02:36:31;7.50;99.90
1578;DHT22;57623;53.608;10.004;2023-04-25T02:39:00;7.40;99.90
1578;DHT22;57623;53.608;10.004;2023-04-25T02:41:29;7.40;99.90
1578;DHT22;57623;53.608;10.004;2023-04-25T02:43:57;7.40;99.90
1578;DHT22;57623;53.608;10.004;2023-04-25T02:46:25;7.40;99.90
1578;DHT22;57623;53.608;10.004;2023-04-25T02:49:06;7.40;99.90
1578;DHT22;57623;53.608;10.004;2023-04-25T02:51:34;7.40;99.90
1578;DHT22;57623;53.608;10.004;2023-04-25T02:54:02;7.40;99.90
1578;DHT22;57623;53.608;10.004;2023-04-25T02:56:30;7.40;99.90
1578;DHT22;57623;53.608;10.004;2023-04-25T02:58:58;7.40;99.90
1578;DHT22;57623;53.608;10.004;2023-04-25T03:01:29;7.30;99.90
1578;DHT22;57623;53.608;10.004;2023-04-25T03:03:57;7.30;99.90
1578;DHT22;57623;53.608;10.004;2023-04-25T03:06:26;7.30;99.90
1578;DHT22;57623;53.608;10.004;2023-04-25T03:08:54;7.20;99.90
1578;DHT22;57623;53.608;10.004;2023-04-25T03:11:25;7.20;99.90
1578;DHT22;57623;53.608;10.004;2023-04-25T03:14:31;7.20;99.90
1578;DHT22;57623;53.608;10.004;2023-04-25T03:48:23;6.70;99.90
1578;DHT22;57623;53.608;10.004;2023-04-25T03:50:52;6.70;99.90
1578;DHT22;57623;53.608;10.004;2023-04-25T03:53:20;6.70;99.90
1578;DHT22;57623;53.608;10.004;2023-04-25T03:55:48;6.70;99.90
1578;DHT22;57623;53.608;10.004;2023-04-25T03:58:16;6.70;99.90
1578;DHT22;57623;53.608;10.004;2023-04-25T04:00:44;6.70;99.90
1578;DHT22;57623;53.608;10.004;2023-04-25T04:03:12;6.70;99.90
1578;DHT22;57623;53.608;10.004;2023-04-25T04:05:41;6.60;99.90
1578;DHT22;57623;53.608;10.004;2023-04-25T04:08:09;6.60;99.90
1578;DHT22;57623;53.608;10.004;2023-04-25T04:10:37;6.60;99.90
1578;DHT22;57623;53.608;10.004;2023-04-25T04:13:22;6.60;99.90
1578;DHT22;57623;53.608;10.004;2023-04-25T04:15:49;6.60;99.90
1578;DHT22;57623;53.608;10.004;2023-04-25T04:18:17;6.60;99.90
1578;DHT22;57623;53.608;10.004;2023-04-25T04:20:47;6.60;99.90
1578;DHT22;57623;53.608;10.004;2023-04-25T04:23:15;6.60;99.90
1578;DHT22;57623;53.608;10.004;2023-04-25T04:25:43;6.60;99.90
1578;DHT22;57623;53.608;10.004;2023-04-25T04:28:11;6.50;99.90
1578;DHT22;57623;53.608;10.004;2023-04-25T04:30:39;6.50;99.90
1578;DHT22;57623;53.608;10.004;2023-04-25T04:33:07;6.50;99.90
1578;DHT22;57623;53.608;10.004;2023-04-25T04:35:35;6.50;99.90
1578;DHT22;57623;53.608;10.004;2023-04-25T04:38:05;6.50;99.90
1578;DHT22;57623;53.608;10.004;2023-04-25T04:40:33;6.50;99.90
1578;DHT22;57623;53.608;10.004;2023-04-25T04:43:01;6.40;99.90
1578;DHT22;57623;53.608;10.004;2023-04-25T04:45:29;6.50;99.90
1578;DHT22;57623;53.608;10.004;2023-04-25T04:47:57;6.40;99.90
1578;DHT22;57623;53.608;10.004;2023-04-25T04:50:25;6.50;99.90
1578;DHT22;57623;53.608;10.004;2023-04-25T04:52:54;6.50;99.90
1578;DHT22;57623;53.608;10.004;2023-04-25T04:55:23;6.50;99.90
1578;DHT22;57623;53.608;10.004;2023-04-25T04:57:51;6.60;99.90
1578;DHT22;57623;53.608;10.004;2023-04-25T05:00:19;6.60;99.90
1578;DHT22;57623;53.608;10.004;2023-04-25T05:02:48;6.60;99.90
1578;DHT22;57623;53.608;10.004;2023-04-25T05:05:16;6.60;99.90
1578;DHT22;57623;53.608;10.004;2023-04-25T05:07:44;6.60;99.90
1578;DHT22;57623;53.608;10.004;2023-04-25T05:10:12;6.60;99.90
1578;DHT22;57623;53.608;10.004;2023-04-25T05:12:42;6.60;99.90
1578;DHT22;57623;53.608;10.004;2023-04-25T05:15:10;6.60;99.90
1578;DHT22;57623;53.608;10.004;2023-04-25T05:17:38;6.60;99.90
1578;DHT22;57623;53.608;10.004;2023-04-25T05:20:07;6.60;99.90
1578;DHT22;57623;53.608;10.004;2023-04-25T05:22:36;6.60;99.90
1578;DHT22;57623;53.608;10.004;2023-04-25T05:25:04;6.60;99.90
1578;DHT22;57623;53.608;10.004;2023-04-25T05:27:33;6.60;99.90
1578;DHT22;57623;53.608;10.004;2023-04-25T05:30:03;6.60;99.90
1578;DHT22;57623;53.608;10.004;2023-04-25T05:32:32;6.50;99.90
1578;DHT22;57623;53.608;10.004;2023-04-25T05:35:00;6.50;99.90
1578;DHT22;57623;53.608;10.004;2023-04-25T05:37:28;6.50;99.90
1578;DHT22;57623;53.608;10.004;2023-04-25T05:39:57;6.50;99.90
1578;DHT22;57623;53.608;10.004;2023-04-25T05:42:25;6.50;99.90
1578;DHT22;57623;53.608;10.004;2023-04-25T05:44:52;6.60;99.90
1578;DHT22;57623;53.608;10.004;2023-04-25T05:47:22;6.60;99.90
1578;DHT22;57623;53.608;10.004;2023-04-25T05:49:50;6.60;99.90
1578;DHT22;57623;53.608;10.004;2023-04-25T05:52:18;6.60;99.90
1578;DHT22;57623;53.608;10.004;2023-04-25T05:54:46;6.60;99.90
1578;DHT22;57623;53.608;10.004;2023-04-25T05:57:21;6.70;99.90
1578;DHT22;57623;53.608;10.004;2023-04-25T05:59:50;6.70;99.90
1578;DHT22;57623;53.608;10.004;2023-04-25T06:02:18;6.80;99.90
1578;DHT22;57623;53.608;10.004;2023-04-25T06:04:50;6.80;99.90
1578;DHT22;57623;53.608;10.004;2023-04-25T06:07:18;6.80;99.90
1578;DHT22;57623;53.608;10.004;2023-04-25T06:09:47;6.90;99.90
1578;DHT22;57623;53.608;10.004;2023-04-25T06:12:14;6.90;99.90
1578;DHT22;57623;53.608;10.004;2023-04-25T06:14:42;6.90;99.90
1578;DHT22;57623;53.608;10.004;2023-04-25T06:17:10;6.90;99.90
1578;DHT22;57623;53.608;10.004;2023-04-25T06:19:38;6.90;99.90
1578;DHT22;57623;53.608;10.004;2023-04-25T06:22:08;7.00;99.90
1578;DHT22;57623;53.608;10.004;2023-04-25T06:24:36;7.00;99.90
1578;DHT22;57623;53.608;10.004;2023-04-25T06:27:04;7.00;99.90
1578;DHT22;57623;53.608;10.004;2023-04-25T06:29:32;7.00;99.90
1578;DHT22;57623;53.608;10.004;2023-04-25T06:31:59;7.00;99.90
1578;DHT22;57623;53.608;10.004;2023-04-25T06:34:27;7.10;99.90
1578;DHT22;57623;53.608;10.004;2023-04-25T06:36:55;7.10;99.90
1578;DHT22;57623;53.608;10.004;2023-04-25T06:39:25;7.10;99.90
1578;DHT22;57623;53.608;10.004;2023-04-25T06:41:52;7.10;99.90
1578;DHT22;57623;53.608;10.004;2023-04-25T06:44:21;7.10;99.90
1578;DHT22;57623;53.608;10.004;2023-04-25T06:46:49;7.20;99.90
1578;DHT22;57623;53.608;10.004;2023-04-25T06:49:17;7.20;99.90
1578;DHT22;57623;53.608;10.004;2023-04-25T06:51:45;7.20;99.90
1578;DHT22;57623;53.608;10.004;2023-04-25T06:54:13;7.20;99.90
1578;DHT22;57623;53.608;10.004;2023-04-25T06:56:42;7.20;99.90
1578;DHT22;57623;53.608;10.004;2023-04-25T06:59:10;7.30;99.90
1578;DHT22;57623;53.608;10.004;2023-04-25T07:01:38;7.30;99.90
1578;DHT22;57623;53.608;10.004;2023-04-25T07:04:06;7.40;99.90
1578;DHT22;57623;53.608;10.004;2023-04-25T07:06:35;7.40;99.90
1578;DHT22;57623;53.608;10.004;2023-04-25T07:09:04;7.40;99.90
1578;DHT22;57623;53.608;10.004;2023-04-25T07:11:32;7.40;99.90
1578;DHT22;57623;53.608;10.004;2023-04-25T07:14:02;7.30;99.90
1578;DHT22;57623;53.608;10.004;2023-04-25T07:16:30;7.30;99.90
1578;DHT22;57623;53.608;10.004;2023-04-25T07:18:58;7.40;99.90
1578;DHT22;57623;53.608;10.004;2023-04-25T07:21:26;7.40;99.90
1578;DHT22;57623;53.608;10.004;2023-04-25T07:23:54;7.40;99.90
1578;DHT22;57623;53.608;10.004;2023-04-25T07:26:22;7.40;99.90
1578;DHT22;57623;53.608;10.004;2023-04-25T07:28:50;7.40;99.90
1578;DHT22;57623;53.608;10.004;2023-04-25T07:31:19;7.40;99.90
1578;DHT22;57623;53.608;10.004;2023-04-25T07:33:48;7.40;99.90
1578;DHT22;57623;53.608;10.004;2023-04-25T07:36:16;7.30;99.90
1578;DHT22;57623;53.608;10.004;2023-04-25T07:38:44;7.30;99.90
1578;DHT22;57623;53.608;10.004;2023-04-25T07:41:12;7.30;99.90
1578;DHT22;57623;53.608;10.004;2023-04-25T07:43:40;7.40;99.90
1578;DHT22;57623;53.608;10.004;2023-04-25T07:46:08;7.40;99.90
1578;DHT22;57623;53.608;10.004;2023-04-25T07:48:37;7.50;99.90
1578;DHT22;57623;53.608;10.004;2023-04-25T07:51:05;7.50;99.90
1578;DHT22;57623;53.608;10.004;2023-04-25T07:53:33;7.60;99.90
1578;DHT22;57623;53.608;10.004;2023-04-25T07:56:04;7.60;99.90
1578;DHT22;57623;53.608;10.004;2023-04-25T07:58:32;7.70;99.90
1578;DHT22;57623;53.608;10.004;2023-04-25T08:01:00;7.80;99.90
1578;DHT22;57623;53.608;10.004;2023-04-25T08:03:28;7.90;99.90
1578;DHT22;57623;53.608;10.004;2023-04-25T08:06:00;8.00;99.90
1578;DHT22;57623;53.608;10.004;2023-04-25T08:08:33;8.00;99.90
1578;DHT22;57623;53.608;10.004;2023-04-25T08:11:01;8.10;99.90
1578;DHT22;57623;53.608;10.004;2023-04-25T08:13:29;8.10;99.90
1578;DHT22;57623;53.608;10.004;2023-04-25T08:15:57;8.10;99.90
1578;DHT22;57623;53.608;10.004;2023-04-25T08:18:25;8.10;99.90
1578;DHT22;57623;53.608;10.004;2023-04-25T08:20:53;8.10;99.90
1578;DHT22;57623;53.608;10.004;2023-04-25T08:23:23;8.00;99.90
1578;DHT22;57623;53.608;10.004;2023-04-25T08:25:51;8.00;99.90
1578;DHT22;57623;53.608;10.004;2023-04-25T08:28:20;8.00;99.90
1578;DHT22;57623;53.608;10.004;2023-04-25T08:30:48;8.00;99.90
1578;DHT22;57623;53.608;10.004;2023-04-25T08:33:16;8.00;99.90
1578;DHT22;57623;53.608;10.004;2023-04-25T08:35:44;8.00;99.90
1578;DHT22;57623;53.608;10.004;2023-04-25T08:38:12;8.00;99.90
1578;DHT22;57623;53.608;10.004;2023-04-25T08:40:43;8.00;99.90
1578;DHT22;57623;53.608;10.004;2023-04-25T08:43:13;8.00;99.90
1578;DHT22;57623;53.608;10.004;2023-04-25T08:45:42;8.00;99.90
1578;DHT22;57623;53.608;10.004;2023-04-25T08:48:12;8.00;99.90
1578;DHT22;57623;53.608;10.004;2023-04-25T08:50:45;8.00;99.90
1578;DHT22;57623;53.608;10.004;2023-04-25T08:53:14;8.10;99.90
1578;DHT22;57623;53.608;10.004;2023-04-25T08:55:47;8.10;99.90
1578;DHT22;57623;53.608;10.004;2023-04-25T08:58:16;8.00;99.90
1578;DHT22;57623;53.608;10.004;2023-04-25T09:00:46;8.10;99.90
1578;DHT22;57623;53.608;10.004;2023-04-25T09:03:14;8.20;99.90
1578;DHT22;57623;53.608;10.004;2023-04-25T09:05:42;8.40;99.90
1578;DHT22;57623;53.608;10.004;2023-04-25T09:08:10;8.50;99.90
1578;DHT22;57623;53.608;10.004;2023-04-25T09:10:40;8.50;99.90
1578;DHT22;57623;53.608;10.004;2023-04-25T09:13:11;8.50;99.90
1578;DHT22;57623;53.608;10.004;2023-04-25T09:15:48;8.40;99.90
1578;DHT22;57623;53.608;10.004;2023-04-25T09:18:24;8.40;99.90
1578;DHT22;57623;53.608;10.004;2023-04-25T09:20:58;8.30;99.90
1578;DHT22;57623;53.608;10.004;2023-04-25T09:23:41;8.30;99.90
1578;DHT22;57623;53.608;10.004;2023-04-25T09:26:09;8.40;99.90
1578;DHT22;57623;53.608;10.004;2023-04-25T09:28:39;8.40;99.90
1578;DHT22;57623;53.608;10.004;2023-04-25T09:31:09;8.50;99.90
1578;DHT22;57623;53.608;10.004;2023-04-25T09:33:38;8.50;99.90
1578;DHT22;57623;53.608;10.004;2023-04-25T09:36:09;8.50;99.90
1578;DHT22;57623;53.608;10.004;2023-04-25T09:38:40;8.70;99.90
1578;DHT22;57623;53.608;10.004;2023-04-25T09:41:09;8.70;99.90
1578;DHT22;57623;53.608;10.004;2023-04-25T09:43:39;8.70;99.90
1578;DHT22;57623;53.608;10.004;2023-04-25T09:46:08;8.30;99.90
1578;DHT22;57623;53.608;10.004;2023-04-25T09:48:37;7.90;99.90
1578;DHT22;57623;53.608;10.004;2023-04-25T09:51:07;7.80;99.90
1578;DHT22;57623;53.608;10.004;2023-04-25T09:53:36;7.80;99.90
1578;DHT22;57623;53.608;10.004;2023-04-25T09:56:06;7.80;99.90
1578;DHT22;57623;53.608;10.004;2023-04-25T09:58:35;7.90;99.90
1578;DHT22;57623;53.608;10.004;2023-04-25T10:01:06;8.00;99.90
1578;DHT22;57623;53.608;10.004;2023-04-25T10:03:35;8.20;99.90
1578;DHT22;57623;53.608;10.004;2023-04-25T10:06:07;8.30;99.90
1578;DHT22;57623;53.608;10.004;2023-04-25T10:08:36;8.40;99.90
1578;DHT22;57623;53.608;10.004;2023-04-25T10:11:06;8.60;99.90
1578;DHT22;57623;53.608;10.004;2023-04-25T10:13:35;8.60;99.90
1578;DHT22;57623;53.608;10.004;2023-04-25T10:16:05;8.70;99.90
1578;DHT22;57623;53.608;10.004;2023-04-25T10:18:33;8.70;99.90
1578;DHT22;57623;53.608;10.004;2023-04-25T10:21:02;8.90;99.90
1578;DHT22;57623;53.608;10.004;2023-04-25T10:23:32;9.00;99.90
1578;DHT22;57623;53.608;10.004;2023-04-25T10:26:01;9.10;99.90
1578;DHT22;57623;53.608;10.004;2023-04-25T10:28:29;9.10;99.90
1578;DHT22;57623;53.608;10.004;2023-04-25T10:31:19;9.10;99.90
1578;DHT22;57623;53.608;10.004;2023-04-25T10:33:48;9.00;99.90
1578;DHT22;57623;53.608;10.004;2023-04-25T10:36:22;8.90;99.90
1578;DHT22;57623;53.608;10.004;2023-04-25T10:38:51;8.90;99.90
1578;DHT22;57623;53.608;10.004;2023-04-25T10:41:21;9.10;99.90
1578;DHT22;57623;53.608;10.004;2023-04-25T10:43:50;9.30;99.90
1578;DHT22;57623;53.608;10.004;2023-04-25T10:46:28;9.50;99.90
1578;DHT22;57623;53.608;10.004;2023-04-25T10:48:58;9.60;99.90
1578;DHT22;57623;53.608;10.004;2023-04-25T10:51:27;9.70;99.90
1578;DHT22;57623;53.608;10.004;2023-04-25T10:54:09;9.80;99.90
1578;DHT22;57623;53.608;10.004;2023-04-25T10:56:38;9.80;99.90
1578;DHT22;57623;53.608;10.004;2023-04-25T10:59:08;9.80;99.90
1578;DHT22;57623;53.608;10.004;2023-04-25T11:01:39;9.70;99.90
1578;DHT22;57623;53.608;10.004;2023-04-25T11:04:20;9.60;99.90
1578;DHT22;57623;53.608;10.004;2023-04-25T11:07:00;9.50;99.90
1578;DHT22;57623;53.608;10.004;2023-04-25T11:09:34;9.50;99.90
1578;DHT22;57623;53.608;10.004;2023-04-25T11:12:02;9.60;99.90
1578;DHT22;57623;53.608;10.004;2023-04-25T11:14:30;9.60;99.90
1578;DHT22;57623;53.608;10.004;2023-04-25T11:17:00;9.60;99.90
1578;DHT22;57623;53.608;10.004;2023-04-25T11:19:31;9.50;99.90
1578;DHT22;57623;53.608;10.004;2023-04-25T11:22:00;9.30;99.90
1578;DHT22;57623;53.608;10.004;2023-04-25T11:24:29;9.10;99.90
1578;DHT22;57623;53.608;10.004;2023-04-25T11:26:58;9.00;99.90
1578;DHT22;57623;53.608;10.004;2023-04-25T11:29:26;8.90;99.90
1578;DHT22;57623;53.608;10.004;2023-04-25T11:31:55;9.00;99.90
1578;DHT22;57623;53.608;10.004;2023-04-25T11:34:34;9.10;99.90
1578;DHT22;57623;53.608;10.004;2023-04-25T11:37:02;9.30;99.90
1578;DHT22;57623;53.608;10.004;2023-04-25T11:39:30;9.40;99.90
1578;DHT22;57623;53.608;10.004;2023-04-25T11:41:58;9.50;99.90
1578;DHT22;57623;53.608;10.004;2023-04-25T11:44:31;9.50;99.90
1578;DHT22;57623;53.608;10.004;2023-04-25T11:47:00;9.60;99.90
1578;DHT22;57623;53.608;10.004;2023-04-25T11:49:30;9.80;99.90
1578;DHT22;57623;53.608;10.004;2023-04-25T11:51:59;10.00;99.90
1578;DHT22;57623;53.608;10.004;2023-04-25T11:54:27;10.10;99.90
1578;DHT22;57623;53.608;10.004;2023-04-25T11:56:55;10.30;99.90
1578;DHT22;57623;53.608;10.004;2023-04-25T11:59:25;10.50;99.90
1578;DHT22;57623;53.608;10.004;2023-04-25T12:01:53;10.60;99.90
1578;DHT22;57623;53.608;10.004;2023-04-25T12:04:23;10.60;99.90
1578;DHT22;57623;53.608;10.004;2023-04-25T12:06:52;10.50;99.90
1578;DHT22;57623;53.608;10.004;2023-04-25T12:09:29;10.50;99.90
1578;DHT22;57623;53.608;10.004;2023-04-25T12:11:58;10.50;99.90
1578;DHT22;57623;53.608;10.004;2023-04-25T12:14:30;10.60;99.90
1578;DHT22;57623;53.608;10.004;2023-04-25T12:16:59;10.90;99.90
1578;DHT22;57623;53.608;10.004;2023-04-25T12:19:33;10.80;99.90
1578;DHT22;57623;53.608;10.004;2023-04-25T12:22:01;10.90;99.90
1578;DHT22;57623;53.608;10.004;2023-04-25T12:24:34;10.80;99.90
1578;DHT22;57623;53.608;10.004;2023-04-25T12:27:06;10.80;99.90
1578;DHT22;57623;53.608;10.004;2023-04-25T12:29:35;10.90;99.90
1578;DHT22;57623;53.608;10.004;2023-04-25T12:32:05;11.10;99.90
1578;DHT22;57623;53.608;10.004;2023-04-25T12:34:33;11.10;99.90
1578;DHT22;57623;53.608;10.004;2023-04-25T12:37:02;11.10;99.90
1578;DHT22;57623;53.608;10.004;2023-04-25T12:39:33;11.20;99.90
1578;DHT22;57623;53.608;10.004;2023-04-25T12:42:00;11.30;99.90
1578;DHT22;57623;53.608;10.004;2023-04-25T12:44:30;11.40;99.90
1578;DHT22;57623;53.608;10.004;2023-04-25T12:46:58;11.50;99.90
1578;DHT22;57623;53.608;10.004;2023-04-25T12:49:26;11.60;99.90
1578;DHT22;57623;53.608;10.004;2023-04-25T12:51:54;11.70;99.90
1578;DHT22;57623;53.608;10.004;2023-04-25T12:54:22;11.60;99.90
1578;DHT22;57623;53.608;10.004;2023-04-25T12:56:52;11.30;99.90
1578;DHT22;57623;53.608;10.004;2023-04-25T12:59:21;11.10;99.90
1578;DHT22;57623;53.608;10.004;2023-04-25T13:01:49;11.00;99.90
1578;DHT22;57623;53.608;10.004;2023-04-25T13:04:17;11.10;99.90
1578;DHT22;57623;53.608;10.004;2023-04-25T13:06:47;11.20;99.90
1578;DHT22;57623;53.608;10.004;2023-04-25T13:09:15;11.40;99.90
1578;DHT22;57623;53.608;10.004;2023-04-25T13:11:44;11.60;99.90
1578;DHT22;57623;53.608;10.004;2023-04-25T13:14:14;11.80;99.90
1578;DHT22;57623;53.608;10.004;2023-04-25T13:16:42;11.90;99.90
1578;DHT22;57623;53.608;10.004;2023-04-25T13:19:12;12.00;99.90
1578;DHT22;57623;53.608;10.004;2023-04-25T13:21:40;11.60;99.90
1578;DHT22;57623;53.608;10.004;2023-04-25T13:24:11;11.10;99.90
1578;DHT22;57623;53.608;10.004;2023-04-25T13:26:39;10.60;99.90
1578;DHT22;57623;53.608;10.004;2023-04-25T13:29:07;10.30;99.90
1578;DHT22;57623;53.608;10.004;2023-04-25T13:31:36;10.10;99.90
1578;DHT22;57623;53.608;10.004;2023-04-25T13:34:04;10.10;99.90
1578;DHT22;57623;53.608;10.004;2023-04-25T13:36:32;10.40;99.90
1578;DHT22;57623;53.608;10.004;2023-04-25T13:39:00;10.70;99.90
1578;DHT22;57623;53.608;10.004;2023-04-25T13:41:30;11.00;99.90
1578;DHT22;57623;53.608;10.004;2023-04-25T13:43:58;11.30;99.90
1578;DHT22;57623;53.608;10.004;2023-04-25T13:46:27;11.40;99.90
1578;DHT22;57623;53.608;10.004;2023-04-25T13:49:13;11.30;99.90
1578;DHT22;57623;53.608;10.004;2023-04-25T13:51:42;10.90;99.90
1578;DHT22;57623;53.608;10.004;2023-04-25T13:54:10;10.40;99.90
1578;DHT22;57623;53.608;10.004;2023-04-25T13:56:38;10.20;99.90
1578;DHT22;57623;53.608;10.004;2023-04-25T13:59:08;10.00;99.90
1578;DHT22;57623;53.608;10.004;2023-04-25T14:01:36;9.80;99.90
1578;DHT22;57623;53.608;10.004;2023-04-25T14:04:04;9.60;99.90
1578;DHT22;57623;53.608;10.004;2023-04-25T14:06:34;9.50;99.90
1578;DHT22;57623;53.608;10.004;2023-04-25T14:09:02;9.50;99.90
1578;DHT22;57623;53.608;10.004;2023-04-25T14:11:31;9.60;99.90
1578;DHT22;57623;53.608;10.004;2023-04-25T14:13:59;9.80;99.90
1578;DHT22;57623;53.608;10.004;2023-04-25T14:16:27;10.70;99.90
1578;DHT22;57623;53.608;10.004;2023-04-25T14:18:55;12.20;99.90
1578;DHT22;57623;53.608;10.004;2023-04-25T14:21:24;13.60;99.90
1578;DHT22;57623;53.608;10.004;2023-04-25T14:23:54;14.50;99.90
1578;DHT22;57623;53.608;10.004;2023-04-25T14:26:22;15.10;99.90
1578;DHT22;57623;53.608;10.004;2023-04-25T14:28:51;15.20;99.90
1578;DHT22;57623;53.608;10.004;2023-04-25T14:31:19;14.70;99.90
1578;DHT22;57623;53.608;10.004;2023-04-25T14:33:48;14.10;99.90
1578;DHT22;57623;53.608;10.004;2023-04-25T14:36:17;13.60;99.90
1578;DHT22;57623;53.608;10.004;2023-04-25T14:38:45;13.40;99.90
1578;DHT22;57623;53.608;10.004;2023-04-25T14:41:14;13.40;99.90
1578;DHT22;57623;53.608;10.004;2023-04-25T14:43:42;13.40;99.90
1578;DHT22;57623;53.608;10.004;2023-04-25T14:46:11;13.30;99.90
1578;DHT22;57623;53.608;10.004;2023-04-25T14:48:39;13.30;99.90
1578;DHT22;57623;53.608;10.004;2023-04-25T14:51:07;13.30;99.90
1578;DHT22;57623;53.608;10.004;2023-04-25T14:53:35;13.50;99.90
1578;DHT22;57623;53.608;10.004;2023-04-25T14:56:04;13.60;99.90
1578;DHT22;57623;53.608;10.004;2023-04-25T14:58:33;13.60;99.90
1578;DHT22;57623;53.608;10.004;2023-04-25T15:01:01;13.40;97.40
1578;DHT22;57623;53.608;10.004;2023-04-25T15:03:29;13.30;99.90
1578;DHT22;57623;53.608;10.004;2023-04-25T15:05:58;13.20;99.90
1578;DHT22;57623;53.608;10.004;2023-04-25T15:08:26;12.90;99.90
1578;DHT22;57623;53.608;10.004;2023-04-25T15:10:54;12.50;99.90
1578;DHT22;57623;53.608;10.004;2023-04-25T15:13:22;12.10;99.90
1578;DHT22;57623;53.608;10.004;2023-04-25T15:15:52;11.90;99.90
1578;DHT22;57623;53.608;10.004;2023-04-25T15:18:21;11.70;99.90
1578;DHT22;57623;53.608;10.004;2023-04-25T15:20:51;11.60;99.90
1578;DHT22;57623;53.608;10.004;2023-04-25T15:23:20;11.40;99.90
1578;DHT22;57623;53.608;10.004;2023-04-25T15:25:50;11.40;99.90
1578;DHT22;57623;53.608;10.004;2023-04-25T15:28:18;11.40;99.90
1578;DHT22;57623;53.608;10.004;2023-04-25T15:30:47;11.30;99.90
1578;DHT22;57623;53.608;10.004;2023-04-25T15:33:17;11.20;99.90
1578;DHT22;57623;53.608;10.004;2023-04-25T15:35:45;11.00;99.90
1578;DHT22;57623;53.608;10.004;2023-04-25T15:38:14;10.80;99.90
1578;DHT22;57623;53.608;10.004;2023-04-25T15:40:42;10.70;99.90
1578;DHT22;57623;53.608;10.004;2023-04-25T15:43:10;10.80;99.90
1578;DHT22;57623;53.608;10.004;2023-04-25T15:45:42;10.80;99.90
1578;DHT22;57623;53.608;10.004;2023-04-25T15:48:11;10.90;99.90
1578;DHT22;57623;53.608;10.004;2023-04-25T15:50:41;10.80;99.90
1578;DHT22;57623;53.608;10.004;2023-04-25T15:53:09;10.70;99.90
1578;DHT22;57623;53.608;10.004;2023-04-25T15:55:37;10.60;99.90
1578;DHT22;57623;53.608;10.004;2023-04-25T15:58:05;10.50;99.90
1578;DHT22;57623;53.608;10.004;2023-04-25T16:00:37;10.40;99.90
1578;DHT22;57623;53.608;10.004;2023-04-25T16:03:06;10.50;99.90
1578;DHT22;57623;53.608;10.004;2023-04-25T16:05:35;10.50;99.90
1578;DHT22;57623;53.608;10.004;2023-04-25T16:08:04;10.40;99.90
1578;DHT22;57623;53.608;10.004;2023-04-25T16:10:32;10.50;99.90
1578;DHT22;57623;53.608;10.004;2023-04-25T16:13:00;10.60;99.90
1578;DHT22;57623;53.608;10.004;2023-04-25T16:15:28;10.70;99.90
1578;DHT22;57623;53.608;10.004;2023-04-25T16:18:00;10.70;99.90
1578;DHT22;57623;53.608;10.004;2023-04-25T16:20:28;10.80;99.90
1578;DHT22;57623;53.608;10.004;2023-04-25T16:22:56;10.80;99.90
1578;DHT22;57623;53.608;10.004;2023-04-25T16:25:26;10.90;99.90
1578;DHT22;57623;53.608;10.004;2023-04-25T16:27:54;10.80;99.90
1578;DHT22;57623;53.608;10.004;2023-04-25T16:30:22;10.70;99.90
1578;DHT22;57623;53.608;10.004;2023-04-25T16:32:49;10.70;99.90